sensor_id;sensor_type;location;lat;lon;timestamp;pressure;altitude;pressure_sealevel;temperature;humidity
37878;BME280;23715;53.652;8.516;2023-03-03T00:04:49;103498.29;;;4.72;100.00
37878;BME280;23715;53.652;8.516;2023-03-03T00:09:52;103525.89;;;4.69;100.00
37878;BME280;23715;53.652;8.516;2023-03-03T00:14:52;103526.38;;;4.42;100.00
37878;BME280;23715;53.652;8.516;2023-03-03T00:19:56;103562.98;;;4.58;100.00
37878;BME280;23715;53.652;8.516;2023-03-03T00:30:24;103621.73;;;4.77;100.00
37878;BME280;23715;53.652;8.516;2023-03-03T00:35:30;103645.19;;;4.84;100.00
37878;BME280;23715;53.652;8.516;2023-03-03T00:40:50;103666.13;;;5.07;100.00
37878;BME280;23715;53.652;8.516;2023-03-03T00:45:53;103649.44;;;4.94;100.00
37878;BME280;23715;53.652;8.516;2023-03-03T00:51:00;103635.72;;;4.92;100.00
37878;BME280;23715;53.652;8.516;2023-03-03T00:56:08;103626.81;;;4.91;100.00
37878;BME280;23715;53.652;8.516;2023-03-03T01:01:17;103610.45;;;4.87;100.00
37878;BME280;23715;53.652;8.516;2023-03-03T01:06:35;103611.73;;;4.90;100.00
37878;BME280;23715;53.652;8.516;2023-03-03T01:11:27;103628.82;;;5.04;100.00
37878;BME280;23715;53.652;8.516;2023-03-03T01:16:29;103629.16;;;5.09;100.00
37878;BME280;23715;53.652;8.516;2023-03-03T01:21:40;103617.74;;;5.03;100.00
37878;BME280;23715;53.652;8.516;2023-03-03T01:26:43;103621.55;;;5.12;100.00
37878;BME280;23715;53.652;8.516;2023-03-03T01:31:53;103626.31;;;5.20;100.00
37878;BME280;23715;53.652;8.516;2023-03-03T01:42:04;103643.26;;;4.92;100.00
37878;BME280;23715;53.652;8.516;2023-03-03T01:47:16;103652.92;;;4.99;100.00
37878;BME280;23715;53.652;8.516;2023-03-03T01:52:38;103655.70;;;5.17;100.00
37878;BME280;23715;53.652;8.516;2023-03-03T01:57:49;103656.75;;;5.33;100.00
37878;BME280;23715;53.652;8.516;2023-03-03T02:02:49;103639.55;;;5.25;100.00
37878;BME280;23715;53.652;8.516;2023-03-03T02:07:53;103624.15;;;5.17;100.00
37878;BME280;23715;53.652;8.516;2023-03-03T02:12:59;103607.56;;;5.01;100.00
37878;BME280;23715;53.652;8.516;2023-03-03T02:18:16;103581.09;;;4.88;100.00
37878;BME280;23715;53.652;8.516;2023-03-03T02:23:32;103578.02;;;5.10;100.00
37878;BME280;23715;53.652;8.516;2023-03-03T02:28:37;103561.19;;;5.06;100.00
37878;BME280;23715;53.652;8.516;2023-03-03T02:33:44;103567.92;;;5.27;100.00
37878;BME280;23715;53.652;8.516;2023-03-03T02:39:00;103571.83;;;5.53;100.00
37878;BME280;23715;53.652;8.516;2023-03-03T02:44:03;103566.49;;;5.53;100.00
37878;BME280;23715;53.652;8.516;2023-03-03T02:49:14;103544.81;;;5.47;100.00
37878;BME280;23715;53.652;8.516;2023-03-03T02:54:21;103501.81;;;5.41;100.00
37878;BME280;23715;53.652;8.516;2023-03-03T02:59:24;103501.81;;;5.19;100.00
37878;BME280;23715;53.652;8.516;2023-03-03T03:04:31;103482.89;;;5.11;100.00
37878;BME280;23715;53.652;8.516;2023-03-03T03:09:33;103463.56;;;4.99;100.00
37878;BME280;23715;53.652;8.516;2023-03-03T03:14:37;103421.98;;;4.66;100.00
37878;BME280;23715;53.652;8.516;2023-03-03T03:19:46;103400.86;;;4.35;100.00
37878;BME280;23715;53.652;8.516;2023-03-03T03:24:51;103383.08;;;4.35;100.00
37878;BME280;23715;53.652;8.516;2023-03-03T03:29:53;103372.25;;;4.20;100.00
37878;BME280;23715;53.652;8.516;2023-03-03T03:35:04;103364.12;;;4.28;100.00
37878;BME280;23715;53.652;8.516;2023-03-03T03:40:06;103344.44;;;4.13;100.00
37878;BME280;23715;53.652;8.516;2023-03-03T03:45:53;103346.67;;;4.34;100.00
37878;BME280;23715;53.652;8.516;2023-03-03T03:50:19;103373.48;;;4.70;100.00
37878;BME280;23715;53.652;8.516;2023-03-03T03:55:23;103375.09;;;4.79;100.00
37878;BME280;23715;53.652;8.516;2023-03-03T04:00:25;103344.44;;;4.58;100.00
37878;BME280;23715;53.652;8.516;2023-03-03T04:05:29;103314.66;;;4.37;100.00
37878;BME280;23715;53.652;8.516;2023-03-03T04:10:29;103276.16;;;4.08;100.00
37878;BME280;23715;53.652;8.516;2023-03-03T04:15:32;103256.48;;;3.95;100.00
37878;BME280;23715;53.652;8.516;2023-03-03T04:20:35;103223.70;;;3.68;100.00
37878;BME280;23715;53.652;8.516;2023-03-03T04:25:46;103199.12;;;3.54;100.00
37878;BME280;23715;53.652;8.516;2023-03-03T04:30:47;103188.66;;;3.43;100.00
37878;BME280;23715;53.652;8.516;2023-03-03T04:35:55;103175.09;;;3.35;100.00
37878;BME280;23715;53.652;8.516;2023-03-03T04:40:58;103163.78;;;3.23;100.00
37878;BME280;23715;53.652;8.516;2023-03-03T04:45:58;103150.09;;;3.21;100.00
37878;BME280;23715;53.652;8.516;2023-03-03T04:51:00;103132.05;;;3.12;100.00
37878;BME280;23715;53.652;8.516;2023-03-03T04:56:04;103086.75;;;2.95;100.00
37878;BME280;23715;53.652;8.516;2023-03-03T05:01:15;103086.75;;;2.95;100.00
37878;BME280;23715;53.652;8.516;2023-03-03T05:06:16;103088.79;;;3.04;100.00
37878;BME280;23715;53.652;8.516;2023-03-03T05:11:25;103078.85;;;3.14;100.00
37878;BME280;23715;53.652;8.516;2023-03-03T05:16:29;103083.47;;;3.28;100.00
37878;BME280;23715;53.652;8.516;2023-03-03T05:26:41;103071.29;;;3.38;100.00
37878;BME280;23715;53.652;8.516;2023-03-03T05:31:47;103071.41;;;3.54;100.00
37878;BME280;23715;53.652;8.516;2023-03-03T05:37:01;103060.41;;;3.50;100.00
37878;BME280;23715;53.652;8.516;2023-03-03T05:41:55;103056.66;;;3.38;100.00
37878;BME280;23715;53.652;8.516;2023-03-03T05:47:14;103043.65;;;3.24;100.00
37878;BME280;23715;53.652;8.516;2023-03-03T05:52:03;103025.66;;;2.91;100.00
37878;BME280;23715;53.652;8.516;2023-03-03T05:57:03;103021.46;;;2.80;100.00
37878;BME280;23715;53.652;8.516;2023-03-03T06:02:09;103009.93;;;2.57;100.00
37878;BME280;23715;53.652;8.516;2023-03-03T06:07:16;102997.21;;;2.48;100.00
37878;BME280;23715;53.652;8.516;2023-03-03T06:12:16;102994.95;;;2.52;100.00
37878;BME280;23715;53.652;8.516;2023-03-03T06:17:24;103002.37;;;2.58;100.00
37878;BME280;23715;53.652;8.516;2023-03-03T06:22:26;103004.91;;;2.40;100.00
37878;BME280;23715;53.652;8.516;2023-03-03T06:27:32;103004.81;;;2.44;100.00
37878;BME280;23715;53.652;8.516;2023-03-03T06:32:39;103027.12;;;2.60;100.00
37878;BME280;23715;53.652;8.516;2023-03-03T06:37:48;103044.00;;;2.57;100.00
37878;BME280;23715;53.652;8.516;2023-03-03T06:42:53;103078.23;;;2.76;100.00
37878;BME280;23715;53.652;8.516;2023-03-03T06:48:01;103077.67;;;2.81;100.00
37878;BME280;23715;53.652;8.516;2023-03-03T06:53:13;103074.77;;;2.96;100.00
37878;BME280;23715;53.652;8.516;2023-03-03T06:58:18;103065.05;;;2.93;100.00
37878;BME280;23715;53.652;8.516;2023-03-03T07:03:28;103076.02;;;3.23;100.00
37878;BME280;23715;53.652;8.516;2023-03-03T07:08:31;103085.31;;;3.68;100.00
37878;BME280;23715;53.652;8.516;2023-03-03T07:13:33;103103.89;;;4.12;100.00
37878;BME280;23715;53.652;8.516;2023-03-03T07:18:49;103106.20;;;4.45;100.00
37878;BME280;23715;53.652;8.516;2023-03-03T07:24:01;103115.24;;;4.94;100.00
37878;BME280;23715;53.652;8.516;2023-03-03T07:29:16;103125.59;;;5.22;100.00
37878;BME280;23715;53.652;8.516;2023-03-03T07:34:38;103119.69;;;5.42;100.00
37878;BME280;23715;53.652;8.516;2023-03-03T07:39:44;103119.00;;;5.67;100.00
37878;BME280;23715;53.652;8.516;2023-03-03T07:44:53;103119.69;;;5.90;100.00
37878;BME280;23715;53.652;8.516;2023-03-03T07:49:53;103113.52;;;6.18;100.00
37878;BME280;23715;53.652;8.516;2023-03-03T07:55:17;103105.75;;;6.38;100.00
37878;BME280;23715;53.652;8.516;2023-03-03T08:10:53;103055.16;;;6.19;100.00
37878;BME280;23715;53.652;8.516;2023-03-03T08:26:08;103063.58;;;6.20;100.00
37878;BME280;23715;53.652;8.516;2023-03-03T08:31:19;103068.09;;;6.18;100.00
37878;BME280;23715;53.652;8.516;2023-03-03T08:36:21;103074.18;;;6.23;100.00
37878;BME280;23715;53.652;8.516;2023-03-03T08:41:25;103090.63;;;6.37;100.00
37878;BME280;23715;53.652;8.516;2023-03-03T08:46:35;103088.45;;;6.22;100.00
37878;BME280;23715;53.652;8.516;2023-03-03T08:51:38;103100.49;;;6.35;100.00
37878;BME280;23715;53.652;8.516;2023-03-03T08:56:49;103103.40;;;6.56;100.00
37878;BME280;23715;53.652;8.516;2023-03-03T09:01:47;103103.91;;;6.80;100.00
37878;BME280;23715;53.652;8.516;2023-03-03T09:06:53;103104.91;;;7.16;100.00
37878;BME280;23715;53.652;8.516;2023-03-03T09:12:16;103082.19;;;7.03;100.00
37878;BME280;23715;53.652;8.516;2023-03-03T09:22:27;103053.27;;;6.76;100.00
37878;BME280;23715;53.652;8.516;2023-03-03T09:27:34;103047.55;;;6.73;100.00
37878;BME280;23715;53.652;8.516;2023-03-03T09:32:42;103058.04;;;6.93;100.00
37878;BME280;23715;53.652;8.516;2023-03-03T09:37:49;103053.30;;;6.88;100.00
37878;BME280;23715;53.652;8.516;2023-03-03T09:42:55;103058.89;;;7.18;100.00
37878;BME280;23715;53.652;8.516;2023-03-03T10:03:47;103000.73;;;7.12;100.00
37878;BME280;23715;53.652;8.516;2023-03-03T10:08:58;102976.02;;;6.55;100.00
37878;BME280;23715;53.652;8.516;2023-03-03T10:25:00;102864.52;;;6.70;100.00
37878;BME280;23715;53.652;8.516;2023-03-03T10:57:00;102783.70;;;6.38;100.00
37878;BME280;23715;53.652;8.516;2023-03-03T11:13:01;102739.25;;;7.48;100.00
37878;BME280;23715;53.652;8.516;2023-03-03T11:18:24;102713.45;;;6.47;100.00
37878;BME280;23715;53.652;8.516;2023-03-03T11:23:38;102710.29;;;6.71;100.00
37878;BME280;23715;53.652;8.516;2023-03-03T11:40:09;102684.02;;;7.45;100.00
37878;BME280;23715;53.652;8.516;2023-03-03T11:45:24;102668.09;;;7.21;100.00
37878;BME280;23715;53.652;8.516;2023-03-03T11:50:35;102668.09;;;7.21;100.00
37878;BME280;23715;53.652;8.516;2023-03-03T12:28:21;102605.53;;;7.24;100.00
37878;BME280;23715;53.652;8.516;2023-03-03T12:39:05;102501.68;;;7.61;100.00
37878;BME280;23715;53.652;8.516;2023-03-03T13:31:36;102566.20;;;7.16;100.00
37878;BME280;23715;53.652;8.516;2023-03-03T14:14:51;102560.34;;;6.33;100.00
37878;BME280;23715;53.652;8.516;2023-03-03T14:31:27;102539.03;;;6.31;100.00
37878;BME280;23715;53.652;8.516;2023-03-03T14:36:31;102532.94;;;6.60;100.00
37878;BME280;23715;53.652;8.516;2023-03-03T15:14:42;102528.18;;;6.56;100.00
37878;BME280;23715;53.652;8.516;2023-03-03T18:11:53;102538.59;;;5.62;100.00
37878;BME280;23715;53.652;8.516;2023-03-03T18:22:08;102626.86;;;5.93;100.00
37878;BME280;23715;53.652;8.516;2023-03-03T18:32:23;102590.34;;;5.58;100.00
37878;BME280;23715;53.652;8.516;2023-03-03T18:37:36;102621.08;;;5.45;100.00
37878;BME280;23715;53.652;8.516;2023-03-03T18:42:38;102621.08;;;5.45;100.00
37878;BME280;23715;53.652;8.516;2023-03-03T18:53:23;102629.42;;;6.20;100.00
37878;BME280;23715;53.652;8.516;2023-03-03T18:58:35;102629.42;;;6.20;100.00
37878;BME280;23715;53.652;8.516;2023-03-03T19:03:54;102624.20;;;6.05;100.00
37878;BME280;23715;53.652;8.516;2023-03-03T19:08:51;102639.58;;;5.86;100.00
37878;BME280;23715;53.652;8.516;2023-03-03T19:19:31;102698.95;;;5.81;100.00
37878;BME280;23715;53.652;8.516;2023-03-03T19:24:38;102707.29;;;6.25;100.00
37878;BME280;23715;53.652;8.516;2023-03-03T19:29:58;102707.29;;;5.97;100.00
37878;BME280;23715;53.652;8.516;2023-03-03T20:18:39;102582.58;;;5.99;100.00
37878;BME280;23715;53.652;8.516;2023-03-03T20:23:46;102578.52;;;5.77;100.00
37878;BME280;23715;53.652;8.516;2023-03-03T20:34:31;102582.25;;;5.48;100.00
37878;BME280;23715;53.652;8.516;2023-03-03T20:50:06;102645.09;;;5.45;100.00
37878;BME280;23715;53.652;8.516;2023-03-03T21:59:20;102955.14;;;5.58;100.00
37878;BME280;23715;53.652;8.516;2023-03-03T22:04:36;102971.77;;;5.81;100.00
37878;BME280;23715;53.652;8.516;2023-03-03T22:09:39;102965.73;;;5.59;100.00
37878;BME280;23715;53.652;8.516;2023-03-03T22:14:43;102981.67;;;5.62;100.00
37878;BME280;23715;53.652;8.516;2023-03-03T22:19:47;102995.13;;;5.44;100.00
37878;BME280;23715;53.652;8.516;2023-03-03T22:24:48;103022.22;;;5.45;100.00
37878;BME280;23715;53.652;8.516;2023-03-03T22:29:53;103046.23;;;5.45;100.00
37878;BME280;23715;53.652;8.516;2023-03-03T22:34:51;103079.38;;;5.53;100.00
37878;BME280;23715;53.652;8.516;2023-03-03T22:39:53;103104.37;;;5.51;100.00
37878;BME280;23715;53.652;8.516;2023-03-03T22:44:55;103113.42;;;5.45;100.00
37878;BME280;23715;53.652;8.516;2023-03-03T22:49:56;103130.52;;;5.54;100.00
37878;BME280;23715;53.652;8.516;2023-03-03T22:54:56;103153.31;;;5.66;100.00
37878;BME280;23715;53.652;8.516;2023-03-03T22:59:58;103135.70;;;5.59;100.00
37878;BME280;23715;53.652;8.516;2023-03-03T23:05:05;103128.12;;;5.75;100.00
37878;BME280;23715;53.652;8.516;2023-03-03T23:10:15;103086.47;;;5.84;100.00
37878;BME280;23715;53.652;8.516;2023-03-03T23:15:16;103020.16;;;6.00;100.00
37878;BME280;23715;53.652;8.516;2023-03-03T23:20:30;103020.16;;;6.00;100.00
37878;BME280;23715;53.652;8.516;2023-03-03T23:25:29;102966.69;;;5.86;100.00
37878;BME280;23715;53.652;8.516;2023-03-03T23:30:33;102927.07;;;5.86;100.00
37878;BME280;23715;53.652;8.516;2023-03-03T23:35:37;102907.69;;;5.94;100.00
37878;BME280;23715;53.652;8.516;2023-03-03T23:40:37;102879.80;;;6.03;100.00
37878;BME280;23715;53.652;8.516;2023-03-03T23:45:38;102841.33;;;6.09;100.00
37878;BME280;23715;53.652;8.516;2023-03-03T23:50:38;102843.58;;;6.21;100.00
37878;BME280;23715;53.652;8.516;2023-03-03T23:55:41;102835.58;;;5.94;100.00
